createdAt,value
2023-03-12T00:01:01.549Z,15.60
2023-03-12T00:03:29.768Z,19.27
2023-03-12T00:06:03.876Z,14.73
2023-03-12T00:08:38.568Z,22.73
2023-03-12T00:11:11.128Z,16.37
2023-03-12T00:13:39.577Z,15.80
2023-03-12T00:16:10.112Z,14.50
2023-03-12T00:18:38.733Z,15.27
2023-03-12T00:21:07.960Z,17.27
2023-03-12T00:23:36.975Z,17.60
2023-03-12T00:26:08.229Z,21.13
2023-03-12T00:28:36.882Z,20.27
2023-03-12T00:31:13.955Z,14.30
2023-03-12T00:33:42.213Z,15.03
2023-03-12T00:36:10.685Z,14.80
2023-03-12T00:38:38.985Z,18.80
2023-03-12T00:41:08.565Z,21.33
2023-03-12T00:43:36.798Z,17.53
2023-03-12T00:46:05.184Z,16.77
2023-03-12T00:48:33.378Z,15.43
2023-03-12T00:51:01.513Z,20.33
2023-03-12T00:53:29.662Z,19.47
2023-03-12T00:55:57.848Z,19.20
2023-03-12T00:58:27.372Z,15.87
2023-03-12T01:00:55.623Z,14.60
2023-03-12T01:03:23.840Z,17.63
2023-03-12T01:05:55.669Z,17.97
2023-03-12T01:08:24.461Z,14.47
2023-03-12T01:10:53.361Z,14.77
2023-03-12T01:13:21.905Z,15.40
2023-03-12T01:15:51.505Z,19.27
2023-03-12T01:18:20.015Z,17.67
2023-03-12T01:20:48.177Z,16.80
2023-03-12T01:23:16.428Z,18.33
2023-03-12T01:25:44.561Z,17.50
2023-03-12T01:28:12.692Z,14.80
2023-03-12T01:30:40.804Z,15.50
2023-03-12T01:33:10.385Z,13.83
2023-03-12T01:35:39.451Z,16.97
2023-03-12T01:38:08.088Z,14.33
2023-03-12T01:40:38.082Z,16.13
2023-03-12T01:43:25.885Z,15.43
2023-03-12T01:46:18.134Z,18.23
2023-03-12T01:48:52.394Z,11.77
2023-03-12T01:51:22.211Z,14.13
2023-03-12T01:53:54.267Z,16.83
2023-03-12T01:56:22.985Z,16.80
2023-03-12T01:58:56.990Z,17.00
2023-03-12T02:01:26.092Z,16.13
2023-03-12T02:03:56.443Z,15.53
2023-03-12T02:06:30.222Z,14.07
2023-03-12T02:08:59.651Z,14.27
2023-03-12T02:11:27.855Z,16.73
2023-03-12T02:13:56.368Z,13.03
2023-03-12T02:16:24.585Z,13.57
2023-03-12T02:18:57.444Z,13.53
2023-03-12T02:21:28.355Z,14.90
2023-03-12T02:24:06.686Z,15.50
2023-03-12T02:26:37.439Z,16.40
2023-03-12T02:29:06.159Z,17.50
2023-03-12T02:31:42.422Z,16.10
2023-03-12T02:34:11.270Z,18.10
2023-03-12T02:36:39.490Z,12.93
2023-03-12T02:39:07.774Z,14.00
2023-03-12T02:41:40.755Z,17.97
2023-03-12T02:44:12.474Z,16.97
2023-03-12T02:46:43.748Z,13.10
2023-03-12T02:49:13.354Z,15.40
2023-03-12T02:51:42.336Z,15.37
2023-03-12T02:54:11.142Z,17.10
2023-03-12T02:56:41.084Z,11.10
2023-03-12T02:59:10.346Z,15.07
2023-03-12T03:01:38.808Z,16.67
2023-03-12T03:04:08.735Z,19.50
2023-03-12T03:06:38.892Z,16.50
2023-03-12T03:09:07.406Z,19.13
2023-03-12T03:11:35.548Z,16.47
2023-03-12T03:14:06.955Z,14.83
2023-03-12T03:16:35.700Z,14.17
2023-03-12T03:19:04.197Z,14.57
2023-03-12T03:21:33.406Z,14.87
2023-03-12T03:24:01.556Z,14.97
2023-03-12T03:26:29.784Z,17.43
2023-03-12T03:28:58.030Z,15.93
2023-03-12T03:31:27.723Z,13.27
2023-03-12T03:33:55.944Z,12.87
2023-03-12T03:36:24.360Z,14.00
2023-03-12T03:38:52.558Z,14.70
2023-03-12T03:41:23.000Z,12.93
2023-03-12T03:43:51.125Z,12.90
2023-03-12T03:46:19.330Z,13.40
2023-03-12T03:48:50.927Z,12.27
2023-03-12T03:51:19.056Z,10.70
2023-03-12T03:53:47.172Z,12.93
2023-03-12T03:56:17.039Z,14.87
2023-03-12T03:58:45.213Z,14.17
2023-03-12T04:01:14.496Z,11.97
2023-03-12T04:03:43.123Z,12.43
2023-03-12T04:06:13.333Z,11.10
2023-03-12T04:08:41.453Z,13.87
2023-03-12T04:11:11.491Z,14.17
2023-03-12T04:13:39.662Z,13.90
2023-03-12T04:16:08.588Z,13.63
2023-03-12T04:18:37.391Z,11.87
2023-03-12T04:21:07.009Z,11.43
2023-03-12T04:23:36.646Z,9.90
2023-03-12T04:26:05.992Z,12.10
2023-03-12T04:28:34.748Z,11.00
2023-03-12T04:31:05.128Z,13.57
2023-03-12T04:33:36.983Z,10.03
2023-03-12T04:36:06.137Z,12.13
2023-03-12T04:38:34.397Z,11.37
2023-03-12T04:41:05.876Z,8.63
2023-03-12T04:43:34.506Z,13.30
2023-03-12T04:46:03.345Z,10.83
2023-03-12T04:48:31.601Z,11.93
2023-03-12T04:50:59.696Z,12.03
2023-03-12T04:53:28.242Z,8.47
2023-03-12T04:55:56.650Z,14.10
2023-03-12T04:58:26.343Z,12.67
2023-03-12T05:00:54.516Z,14.30
2023-03-12T05:03:22.673Z,16.77
2023-03-12T05:05:50.814Z,5.97
2023-03-12T05:08:18.907Z,8.93
2023-03-12T05:10:47.212Z,8.80
2023-03-12T05:13:16.460Z,9.10
2023-03-12T05:15:46.231Z,9.17
2023-03-12T05:18:14.568Z,9.37
2023-03-12T05:20:42.689Z,6.43
2023-03-12T05:23:10.825Z,9.37
2023-03-12T05:25:41.422Z,8.17
2023-03-12T05:28:09.678Z,10.07
2023-03-12T05:30:37.801Z,10.67
2023-03-12T05:33:07.315Z,8.77
2023-03-12T05:35:35.468Z,12.73
2023-03-12T05:38:03.634Z,9.37
2023-03-12T05:40:32.148Z,8.27
2023-03-12T05:43:00.276Z,8.97
2023-03-12T05:45:28.437Z,8.50
2023-03-12T05:47:56.770Z,6.93
2023-03-12T05:50:26.661Z,8.93
2023-03-12T05:52:54.802Z,10.53
2023-03-12T05:55:22.910Z,6.53
2023-03-12T05:57:51.014Z,7.93
2023-03-12T06:00:20.225Z,8.43
2023-03-12T06:02:48.628Z,10.37
2023-03-12T06:05:16.837Z,8.67
2023-03-12T06:07:46.348Z,9.00
2023-03-12T06:10:14.566Z,8.43
2023-03-12T06:12:42.732Z,7.57
2023-03-12T06:15:11.862Z,8.70
2023-03-12T06:17:40.023Z,8.97
2023-03-12T06:20:09.797Z,9.63
2023-03-12T06:22:37.993Z,6.03
2023-03-12T06:25:08.611Z,7.33
2023-03-12T06:27:36.873Z,15.00
2023-03-12T06:30:05.785Z,12.13
2023-03-12T06:32:34.178Z,13.27
2023-03-12T06:35:04.471Z,11.90
2023-03-12T06:37:32.798Z,13.57
2023-03-12T06:40:00.955Z,9.90
2023-03-12T06:42:30.484Z,20.87
2023-03-12T06:44:58.687Z,10.07
2023-03-12T06:47:26.882Z,20.13
2023-03-12T06:49:55.113Z,8.43
2023-03-12T06:52:23.247Z,9.77
2023-03-12T06:54:51.405Z,7.67
2023-03-12T06:57:19.602Z,5.57
2023-03-12T06:59:50.666Z,5.10
2023-03-12T07:02:19.051Z,5.73
2023-03-12T07:04:47.345Z,4.83
2023-03-12T07:07:17.160Z,5.37
2023-03-12T07:09:45.396Z,9.33
2023-03-12T07:12:13.616Z,6.47
2023-03-12T07:14:41.904Z,6.83
2023-03-12T07:17:11.542Z,8.33
2023-03-12T07:19:39.946Z,8.13
2023-03-12T07:22:08.211Z,8.70
2023-03-12T07:24:36.546Z,5.93
2023-03-12T07:27:05.371Z,3.43
2023-03-12T07:29:33.578Z,5.63
2023-03-12T07:32:01.704Z,7.90
2023-03-12T07:34:31.333Z,6.17
2023-03-12T07:37:00.117Z,4.63
2023-03-12T07:39:28.418Z,8.40
2023-03-12T07:41:56.784Z,5.77
2023-03-12T07:44:26.380Z,5.40
2023-03-12T07:46:54.983Z,6.17
2023-03-12T07:49:23.272Z,5.07
2023-03-12T07:51:52.987Z,7.57
2023-03-12T07:54:21.505Z,5.33
2023-03-12T07:56:50.018Z,6.83
2023-03-12T07:59:19.851Z,3.23
2023-03-12T08:01:48.741Z,5.73
2023-03-12T08:04:17.376Z,13.70
2023-03-12T08:06:45.772Z,7.07
2023-03-12T08:09:15.523Z,5.77
2023-03-12T08:11:44.641Z,7.70
2023-03-12T08:14:13.024Z,9.33
2023-03-12T08:16:41.310Z,5.10
2023-03-12T08:19:09.760Z,8.83
2023-03-12T08:21:38.391Z,8.33
2023-03-12T08:24:07.308Z,5.37
2023-03-12T08:26:37.704Z,5.10
2023-03-12T08:29:05.948Z,7.50
2023-03-12T08:31:34.506Z,8.33
2023-03-12T08:34:02.770Z,10.13
2023-03-12T08:36:31.073Z,4.73
2023-03-12T08:38:59.246Z,10.00
2023-03-12T08:41:27.433Z,11.70
2023-03-12T08:43:57.432Z,9.27
2023-03-12T08:46:25.652Z,5.83
2023-03-12T08:48:53.820Z,7.40
2023-03-12T08:51:22.070Z,10.23
2023-03-12T08:53:50.280Z,3.70
2023-03-12T08:56:18.653Z,6.13
2023-03-12T08:58:46.861Z,4.07
2023-03-12T09:01:19.112Z,3.73
2023-03-12T09:03:49.581Z,6.87
2023-03-12T09:06:19.434Z,4.20
2023-03-12T09:08:49.304Z,6.30
2023-03-12T09:11:17.576Z,6.13
2023-03-12T09:14:15.027Z,8.57
2023-03-12T09:16:35.946Z,7.20
2023-03-12T09:19:04.294Z,9.10
2023-03-12T09:21:32.638Z,6.70
2023-03-12T09:24:00.869Z,7.40
2023-03-12T09:26:30.148Z,6.43
2023-03-12T09:28:59.253Z,9.13
2023-03-12T09:31:27.603Z,6.13
2023-03-12T09:33:57.119Z,5.67
2023-03-12T09:36:25.326Z,5.63
2023-03-12T09:38:53.478Z,9.20
2023-03-12T09:41:23.042Z,6.30
2023-03-12T09:43:54.704Z,3.30
2023-03-12T09:46:27.839Z,3.73
2023-03-12T09:49:02.544Z,3.77
2023-03-12T09:51:36.598Z,7.87
2023-03-12T09:54:08.139Z,4.77
2023-03-12T09:56:36.333Z,6.07
2023-03-12T09:59:12.998Z,2.60
2023-03-12T10:01:45.267Z,4.37
2023-03-12T10:04:30.301Z,5.00
2023-03-12T10:07:03.637Z,6.67
2023-03-12T10:09:40.873Z,7.60
2023-03-12T10:12:16.368Z,3.90
2023-03-12T10:14:55.842Z,5.50
2023-03-12T10:17:44.375Z,2.90
2023-03-12T10:20:43.481Z,4.07
2023-03-12T10:23:17.950Z,8.40
2023-03-12T10:25:51.722Z,3.07
2023-03-12T10:28:22.295Z,6.00
2023-03-12T10:30:55.419Z,3.53
2023-03-12T10:33:30.377Z,9.13
2023-03-12T10:36:00.061Z,3.80
2023-03-12T10:38:31.286Z,5.93
2023-03-12T10:40:59.427Z,7.63
2023-03-12T10:43:28.197Z,5.90
2023-03-12T10:46:05.829Z,8.00
2023-03-12T10:48:34.063Z,6.47
2023-03-12T10:51:06.302Z,7.87
2023-03-12T10:53:35.567Z,9.07
2023-03-12T10:56:07.275Z,5.63
2023-03-12T10:58:38.967Z,5.33
2023-03-12T11:01:14.083Z,6.43
2023-03-12T11:03:42.455Z,15.70
2023-03-12T11:06:22.300Z,13.60
2023-03-12T11:09:16.305Z,7.83
2023-03-12T11:11:47.675Z,7.77
2023-03-12T11:14:19.299Z,4.47
2023-03-12T11:16:50.559Z,9.87
2023-03-12T11:19:30.511Z,9.20
2023-03-12T11:22:02.232Z,5.73
2023-03-12T11:24:30.907Z,2.23
2023-03-12T11:27:04.685Z,5.73
2023-03-12T11:29:36.746Z,6.23
2023-03-12T11:32:11.884Z,4.43
2023-03-12T11:34:41.476Z,5.57
2023-03-12T11:37:18.896Z,7.13
2023-03-12T11:40:17.251Z,12.03
2023-03-12T11:43:01.311Z,11.90
2023-03-12T11:45:41.097Z,8.77
2023-03-12T11:48:19.307Z,5.90
2023-03-12T11:50:58.319Z,3.70
2023-03-12T11:53:56.479Z,8.70
2023-03-12T11:56:30.872Z,3.63
2023-03-12T11:59:15.398Z,7.37
2023-03-12T12:01:57.366Z,7.07
2023-03-12T12:04:59.247Z,7.37
2023-03-12T12:07:42.429Z,3.70
2023-03-12T12:10:23.267Z,10.23
2023-03-12T12:13:00.328Z,6.77
2023-03-12T12:15:38.503Z,4.87
2023-03-12T12:18:23.670Z,4.23
2023-03-12T12:20:57.933Z,6.47
2023-03-12T12:23:36.978Z,9.07
2023-03-12T12:26:10.692Z,7.80
2023-03-12T12:28:50.490Z,5.47
2023-03-12T12:31:50.265Z,8.83
2023-03-12T12:34:54.584Z,7.47
2023-03-12T12:37:30.844Z,6.40
2023-03-12T12:40:12.245Z,7.07
2023-03-12T12:42:54.627Z,7.43
2023-03-12T12:45:25.917Z,9.57
2023-03-12T12:47:59.901Z,7.67
2023-03-12T12:50:33.365Z,7.77
2023-03-12T12:53:08.998Z,8.17
2023-03-12T12:55:41.714Z,7.30
2023-03-12T12:58:16.516Z,8.70
2023-03-12T13:00:49.336Z,5.63
2023-03-12T13:03:19.926Z,6.33
2023-03-12T13:05:56.322Z,5.07
2023-03-12T13:08:36.348Z,6.73
2023-03-12T13:11:23.508Z,6.50
2023-03-12T13:14:13.438Z,5.60
2023-03-12T13:16:43.305Z,3.57
2023-03-12T13:19:26.898Z,5.57
2023-03-12T13:22:16.564Z,6.63
2023-03-12T13:24:51.732Z,6.43
2023-03-12T13:27:23.933Z,5.93
2023-03-12T13:29:57.239Z,8.50
2023-03-12T13:33:01.356Z,5.63
2023-03-12T13:35:37.561Z,6.93
2023-03-12T13:38:08.760Z,5.40
2023-03-12T13:41:05.227Z,5.83
2023-03-12T13:43:51.628Z,10.83
2023-03-12T13:46:37.410Z,7.07
2023-03-12T13:49:12.609Z,6.20
2023-03-12T13:52:02.219Z,7.93
2023-03-12T13:54:34.774Z,12.80
2023-03-12T13:57:05.964Z,14.03
2023-03-12T13:59:34.611Z,7.60
2023-03-12T14:02:09.697Z,11.17
2023-03-12T14:04:41.624Z,4.03
2023-03-12T14:07:36.794Z,6.43
2023-03-12T14:10:17.892Z,5.07
2023-03-12T14:12:56.296Z,5.03
2023-03-12T14:15:30.842Z,5.80
2023-03-12T14:18:04.461Z,7.97
2023-03-12T14:20:33.619Z,4.33
2023-03-12T14:23:07.059Z,5.10
2023-03-12T14:25:39.215Z,10.57
2023-03-12T14:28:14.810Z,5.63
2023-03-12T14:30:49.922Z,3.43
2023-03-12T14:33:22.351Z,4.87
2023-03-12T14:35:57.952Z,6.80
2023-03-12T14:38:32.077Z,9.97
2023-03-12T14:41:07.597Z,7.17
2023-03-12T14:43:37.668Z,4.60
2023-03-12T14:46:14.463Z,5.43
2023-03-12T14:48:55.296Z,4.37
2023-03-12T14:51:30.957Z,3.70
2023-03-12T14:54:04.083Z,4.90
2023-03-12T14:56:35.473Z,8.03
2023-03-12T14:59:22.406Z,7.57
2023-03-12T15:01:51.561Z,4.77
2023-03-12T15:04:27.103Z,9.03
2023-03-12T15:06:59.774Z,4.83
2023-03-12T15:09:30.842Z,7.30
2023-03-12T15:12:05.631Z,4.50
2023-03-12T15:14:40.071Z,6.87
2023-03-12T15:17:09.388Z,12.90
2023-03-12T15:19:41.660Z,8.67
2023-03-12T15:22:15.272Z,4.60
2023-03-12T15:25:02.071Z,6.83
2023-03-12T15:27:41.379Z,5.87
2023-03-12T15:30:26.262Z,9.63
2023-03-12T15:33:16.352Z,11.37
2023-03-12T15:36:02.149Z,10.77
2023-03-12T15:38:33.212Z,11.97
2023-03-12T15:41:07.564Z,8.43
2023-03-12T15:43:37.933Z,10.33
2023-03-12T15:46:08.996Z,11.20
2023-03-12T15:48:39.877Z,14.13
2023-03-12T15:51:17.626Z,12.50
2023-03-12T15:53:47.717Z,14.60
2023-03-12T15:56:27.809Z,11.17
2023-03-12T15:59:06.435Z,10.27
2023-03-12T16:01:51.203Z,15.07
2023-03-12T16:04:22.070Z,14.07
2023-03-12T16:06:53.733Z,13.83
2023-03-12T16:09:27.667Z,14.47
2023-03-12T16:11:57.606Z,13.63
2023-03-12T16:14:29.592Z,13.10
2023-03-12T16:16:58.933Z,10.17
2023-03-12T16:19:31.783Z,13.17
2023-03-12T16:22:02.546Z,10.07
2023-03-12T16:24:33.258Z,14.87
2023-03-12T16:27:05.791Z,10.37
2023-03-12T16:29:39.891Z,8.23
2023-03-12T16:32:14.628Z,8.73
2023-03-12T16:34:44.345Z,11.17
2023-03-12T16:37:15.135Z,8.47
2023-03-12T16:39:46.757Z,11.70
2023-03-12T16:42:18.862Z,9.90
2023-03-12T16:44:51.209Z,9.37
2023-03-12T16:47:23.580Z,17.53
2023-03-12T16:49:52.025Z,18.23
2023-03-12T16:52:24.505Z,33.63
2023-03-12T16:54:54.111Z,24.33
2023-03-12T16:57:27.852Z,24.70
2023-03-12T16:59:56.670Z,19.53
2023-03-12T17:02:25.045Z,14.17
2023-03-12T17:04:53.534Z,12.77
2023-03-12T17:07:23.224Z,12.37
2023-03-12T17:09:51.441Z,13.47
2023-03-12T17:12:24.293Z,16.80
2023-03-12T17:14:52.881Z,23.80
2023-03-12T17:17:23.222Z,22.90
2023-03-12T17:19:52.766Z,22.17
2023-03-12T17:22:22.987Z,26.30
2023-03-12T17:24:51.234Z,18.90
2023-03-12T17:27:19.573Z,22.80
2023-03-12T17:29:47.907Z,22.23
2023-03-12T17:32:16.261Z,22.03
2023-03-12T17:34:44.805Z,20.87
2023-03-12T17:37:13.308Z,13.67
2023-03-12T17:39:43.278Z,17.03
2023-03-12T17:42:11.659Z,13.83
2023-03-12T17:44:40.057Z,14.90
2023-03-12T17:47:08.410Z,21.07
2023-03-12T17:49:38.300Z,11.67
2023-03-12T17:52:06.878Z,18.00
2023-03-12T17:54:36.168Z,12.97
2023-03-12T17:57:06.165Z,11.07
2023-03-12T17:59:34.390Z,14.97
2023-03-12T18:02:02.589Z,9.53
2023-03-12T18:04:32.299Z,13.07
2023-03-12T18:07:00.662Z,9.50
2023-03-12T18:09:29.147Z,6.00
2023-03-12T18:11:57.404Z,11.20
2023-03-12T18:14:27.049Z,9.77
2023-03-12T18:16:55.279Z,7.17
2023-03-12T18:19:23.729Z,9.87
2023-03-12T18:21:52.187Z,7.40
2023-03-12T18:24:20.434Z,7.93
2023-03-12T18:26:50.530Z,12.77
2023-03-12T18:29:19.009Z,9.80
2023-03-12T18:31:48.607Z,6.50
2023-03-12T18:34:17.079Z,8.30
2023-03-12T18:36:45.313Z,14.57
2023-03-12T18:39:13.570Z,20.60
2023-03-12T18:41:42.155Z,33.47
2023-03-12T18:44:10.723Z,26.93
2023-03-12T18:46:39.380Z,15.10
2023-03-12T18:49:12.220Z,17.80
2023-03-12T18:51:40.841Z,21.63
2023-03-12T18:54:09.095Z,19.92
2023-03-12T18:56:39.437Z,16.17
2023-03-12T18:59:07.911Z,22.10
2023-03-12T19:01:36.630Z,20.13
2023-03-12T19:04:05.172Z,19.83
2023-03-12T19:06:49.573Z,24.00
2023-03-12T19:09:18.759Z,19.63
2023-03-12T19:11:48.078Z,15.20
2023-03-12T19:14:16.890Z,16.33
2023-03-12T19:16:45.470Z,22.53
2023-03-12T19:19:13.670Z,19.93
2023-03-12T19:21:43.723Z,21.97
2023-03-12T19:24:12.027Z,23.90
2023-03-12T19:26:40.550Z,26.40
2023-03-12T19:29:09.164Z,27.07
2023-03-12T19:31:37.429Z,26.50
2023-03-12T19:34:05.686Z,26.40
2023-03-12T19:36:33.945Z,35.07
2023-03-12T19:39:06.695Z,30.90
2023-03-12T19:41:41.396Z,24.33
2023-03-12T19:44:09.688Z,28.10
2023-03-12T19:46:37.892Z,26.60
2023-03-12T19:49:06.089Z,21.30
2023-03-12T19:51:34.362Z,28.03
2023-03-12T19:54:03.961Z,19.97
2023-03-12T19:56:32.107Z,21.17
2023-03-12T19:59:00.314Z,21.87
2023-03-12T20:01:28.549Z,22.63
2023-03-12T20:03:56.809Z,21.13
2023-03-12T20:06:25.008Z,23.33
2023-03-12T20:08:53.150Z,19.73
2023-03-12T20:11:22.706Z,24.33
2023-03-12T20:13:50.836Z,29.70
2023-03-12T20:16:21.574Z,26.07
2023-03-12T20:18:50.014Z,28.00
2023-03-12T20:21:18.349Z,27.17
2023-03-12T20:23:46.688Z,26.13
2023-03-12T20:26:16.259Z,30.57
2023-03-12T20:28:45.838Z,27.87
2023-03-12T20:31:16.239Z,27.90
2023-03-12T20:33:44.512Z,28.37
2023-03-12T20:36:15.195Z,27.37
2023-03-12T20:38:45.390Z,20.90
2023-03-12T20:41:14.475Z,22.30
2023-03-12T20:43:43.241Z,24.33
2023-03-12T20:46:13.886Z,18.77
2023-03-12T20:48:42.162Z,16.23
2023-03-12T20:51:10.375Z,18.90
2023-03-12T20:53:38.546Z,23.23
2023-03-12T20:56:07.616Z,20.47
2023-03-12T20:58:38.352Z,18.60
2023-03-12T21:01:07.244Z,31.30
2023-03-12T21:03:36.816Z,26.03
2023-03-12T21:06:05.534Z,25.70
2023-03-12T21:08:34.424Z,23.70
2023-03-12T21:11:02.627Z,26.70
2023-03-12T21:13:31.564Z,23.90
2023-03-12T21:15:59.774Z,22.70
2023-03-12T21:18:28.981Z,24.20
2023-03-12T21:21:02.502Z,21.30
2023-03-12T21:23:30.805Z,29.23
2023-03-12T21:26:01.080Z,26.60
2023-03-12T21:28:29.716Z,31.70
2023-03-12T21:31:05.495Z,26.13
2023-03-12T21:33:33.638Z,22.60
2023-03-12T21:36:05.721Z,25.33
2023-03-12T21:38:35.321Z,24.20
2023-03-12T21:41:07.108Z,30.20
2023-03-12T21:43:35.294Z,32.50
2023-03-12T21:46:11.045Z,21.57
2023-03-12T21:48:40.555Z,24.00
2023-03-12T21:51:12.631Z,27.57
2023-03-12T21:53:41.085Z,26.23
2023-03-12T21:56:10.485Z,24.30
2023-03-12T21:58:38.660Z,26.90
2023-03-12T22:01:08.801Z,28.67
2023-03-12T22:03:37.766Z,36.23
2023-03-12T22:06:06.873Z,22.97
2023-03-12T22:08:37.750Z,23.27
2023-03-12T22:11:06.750Z,28.73
2023-03-12T22:13:35.083Z,29.53
2023-03-12T22:16:06.807Z,28.03
2023-03-12T22:18:36.123Z,25.90
2023-03-12T22:21:07.450Z,28.17
2023-03-12T22:23:38.135Z,31.47
2023-03-12T22:26:07.812Z,31.13
2023-03-12T22:28:36.622Z,32.80
2023-03-12T22:31:07.523Z,31.80
2023-03-12T22:33:36.817Z,33.40
2023-03-12T22:36:08.040Z,34.37
2023-03-12T22:38:38.554Z,32.17
2023-03-12T22:41:18.061Z,28.87
2023-03-12T22:43:47.467Z,24.53
2023-03-12T22:46:16.550Z,32.87
2023-03-12T22:48:45.225Z,27.23
2023-03-12T22:51:14.186Z,33.03
2023-03-12T22:53:43.685Z,31.33
2023-03-12T22:56:13.323Z,27.33
2023-03-12T22:58:41.521Z,31.77
2023-03-12T23:01:11.521Z,30.27
2023-03-12T23:03:41.461Z,27.30
2023-03-12T23:06:11.217Z,35.10
2023-03-12T23:08:39.526Z,29.30
2023-03-12T23:11:10.251Z,30.63
2023-03-12T23:13:40.245Z,32.93
2023-03-12T23:16:10.365Z,29.97
2023-03-12T23:18:39.178Z,32.00
2023-03-12T23:21:09.635Z,31.50
2023-03-12T23:23:42.224Z,31.07
2023-03-12T23:26:14.772Z,33.73
2023-03-12T23:28:42.924Z,33.50
2023-03-12T23:31:11.946Z,26.77
2023-03-12T23:33:40.234Z,25.73
2023-03-12T23:36:10.743Z,29.17
2023-03-12T23:38:39.354Z,31.93
2023-03-12T23:41:10.070Z,28.60
2023-03-12T23:43:39.681Z,28.90
2023-03-12T23:46:09.438Z,27.80
2023-03-12T23:48:39.200Z,29.57
2023-03-12T23:51:08.759Z,22.53
2023-03-12T23:53:38.448Z,23.23
2023-03-12T23:56:08.678Z,33.27
2023-03-12T23:58:37.405Z,25.93
